This is the latest recevied weather packets stored in our database for station/object VK3XEM-13. If no packets are shown the sender has not sent any weather packets the latest 1 day(s).
| Time | Temp. | Humidity | Pressure | Rain* | Wind** | Luminosity | Snow |
|---|---|---|---|---|---|---|---|
| 1778057235 | 12.22° C | 89% | 1013.7 hPa | 5.33 mm | 0.89 m/s, 84° | 0 W/m² | - |
| 1778056334 | 12.78° C | 83% | 1013.4 hPa | 1.27 mm | 0 m/s | 0 W/m² | - |
| 1778055434 | 13.89° C | 73% | 1013.1 hPa | 0 mm | 1.34 m/s, 232° | 0 W/m² | - |
| 1778054534 | 14.44° C | 68% | 1012.7 hPa | 0 mm | 0 m/s | 0 W/m² | - |
| 1778053634 | 15° C | 67% | 1012.7 hPa | 0 mm | 0.89 m/s, 204° | 0 W/m² | - |
| 1778052734 | 15° C | 64% | 1012.7 hPa | 0 mm | 0.45 m/s, 190° | 1 W/m² | - |
| 1778051834 | 15.56° C | 63% | 1012.7 hPa | 0 mm | 1.34 m/s, 146° | 9 W/m² | - |
| 1778050934 | 15.56° C | 62% | 1013.1 hPa | 0 mm | 2.24 m/s, 163° | 20 W/m² | - |
| 1778050034 | 15.56° C | 62% | 1013.1 hPa | 0 mm | 2.24 m/s, 132° | 14 W/m² | - |
| 1778049134 | 15.56° C | 61% | 1013.4 hPa | 0 mm | 1.34 m/s, 128° | 64 W/m² | - |
| 1778048234 | 16.67° C | 59% | 1013.4 hPa | 0 mm | 5.36 m/s, 109° | 92 W/m² | - |
| 1778047334 | 16.11° C | 61% | 1013.7 hPa | 0 mm | 3.13 m/s, 200° | 48 W/m² | - |
| 1778046434 | 16.11° C | 60% | 1014.1 hPa | 0 mm | 1.79 m/s, 208° | 130 W/m² | - |
| 1778045534 | 16.67° C | 59% | 1014.1 hPa | 0 mm | 2.68 m/s, 180° | 111 W/m² | - |
| 1778044634 | 16.11° C | 62% | 1014.1 hPa | 0 mm | 0.89 m/s, 200° | 143 W/m² | - |
| 1778043734 | 16.11° C | 60% | 1014.4 hPa | 0 mm | 1.79 m/s, 183° | 92 W/m² | - |
| 1778042834 | 16.11° C | 60% | 1014.4 hPa | 0 mm | 4.02 m/s, 254° | 117 W/m² | - |
| 1778041934 | 15.56° C | 61% | 1014.8 hPa | 0 mm | 1.34 m/s, 311° | 150 W/m² | - |
| 1778041034 | 16.11° C | 60% | 1014.8 hPa | 0 mm | 1.79 m/s, 171° | 182 W/m² | - |
| 1778040134 | 17.22° C | 57% | 1014.8 hPa | 0 mm | 2.24 m/s, 173° | 187 W/m² | - |
| 1778039234 | 15.56° C | 61% | 1015.1 hPa | 0 mm | 2.24 m/s, 209° | 253 W/m² | - |
| 1778038334 | 16.11° C | 60% | 1015.4 hPa | 0 mm | 2.68 m/s, 142° | 249 W/m² | - |
| 1778037434 | 15.56° C | 61% | 1015.8 hPa | 0 mm | 3.13 m/s, 246° | 319 W/m² | - |
| 1778036534 | 15.56° C | 62% | 1016.1 hPa | 0 mm | 0.89 m/s, 149° | 379 W/m² | - |
| 1778035634 | 15° C | 62% | 1016.1 hPa | 0 mm | 3.13 m/s, 162° | 225 W/m² | - |
* Rain latest hour (hover to see other rain measurements)
** Current wind speed in m/s (hover to see current wind gust speed)